sensor_id;sensor_type;location;lat;lon;timestamp;temperature;humidity
2967;DHT22;1493;51.496;7.210;2023-03-13T00:02:21;10.80;1.00
2967;DHT22;1493;51.496;7.210;2023-03-13T00:04:47;10.80;1.00
2967;DHT22;1493;51.496;7.210;2023-03-13T00:07:14;10.90;1.00
2967;DHT22;1493;51.496;7.210;2023-03-13T00:09:41;10.90;99.90
2967;DHT22;1493;51.496;7.210;2023-03-13T00:12:08;10.90;99.90
2967;DHT22;1493;51.496;7.210;2023-03-13T00:14:35;10.90;1.00
2967;DHT22;1493;51.496;7.210;2023-03-13T00:17:02;11.00;1.00
2967;DHT22;1493;51.496;7.210;2023-03-13T00:19:30;11.00;1.00
2967;DHT22;1493;51.496;7.210;2023-03-13T00:21:57;11.00;1.00
2967;DHT22;1493;51.496;7.210;2023-03-13T00:24:23;11.00;1.00
2967;DHT22;1493;51.496;7.210;2023-03-13T00:26:50;11.00;1.00
2967;DHT22;1493;51.496;7.210;2023-03-13T00:29:17;10.90;99.90
2967;DHT22;1493;51.496;7.210;2023-03-13T00:31:44;10.80;99.90
2967;DHT22;1493;51.496;7.210;2023-03-13T00:34:11;10.80;99.90
2967;DHT22;1493;51.496;7.210;2023-03-13T00:36:41;10.70;1.00
2967;DHT22;1493;51.496;7.210;2023-03-13T00:39:08;10.50;1.00
2967;DHT22;1493;51.496;7.210;2023-03-13T00:41:36;10.50;1.00
2967;DHT22;1493;51.496;7.210;2023-03-13T00:44:03;10.40;1.00
2967;DHT22;1493;51.496;7.210;2023-03-13T00:46:30;10.30;1.00
2967;DHT22;1493;51.496;7.210;2023-03-13T00:48:57;10.20;1.00
2967;DHT22;1493;51.496;7.210;2023-03-13T00:51:24;10.20;1.00
2967;DHT22;1493;51.496;7.210;2023-03-13T00:53:53;10.20;1.00
2967;DHT22;1493;51.496;7.210;2023-03-13T00:56:21;10.10;11.40
2967;DHT22;1493;51.496;7.210;2023-03-13T00:58:49;10.20;58.30
2967;DHT22;1493;51.496;7.210;2023-03-13T01:01:19;10.10;70.80
2967;DHT22;1493;51.496;7.210;2023-03-13T01:03:48;10.10;99.90
2967;DHT22;1493;51.496;7.210;2023-03-13T01:06:17;10.10;99.90
2967;DHT22;1493;51.496;7.210;2023-03-13T01:08:45;10.10;99.90
2967;DHT22;1493;51.496;7.210;2023-03-13T01:11:15;10.00;99.90
2967;DHT22;1493;51.496;7.210;2023-03-13T01:13:43;10.00;99.90
2967;DHT22;1493;51.496;7.210;2023-03-13T01:16:12;9.90;99.90
2967;DHT22;1493;51.496;7.210;2023-03-13T01:18:40;9.90;99.90
2967;DHT22;1493;51.496;7.210;2023-03-13T01:21:08;9.90;99.90
2967;DHT22;1493;51.496;7.210;2023-03-13T01:23:35;9.80;99.90
2967;DHT22;1493;51.496;7.210;2023-03-13T01:26:04;9.80;99.90
2967;DHT22;1493;51.496;7.210;2023-03-13T01:28:32;9.80;99.90
2967;DHT22;1493;51.496;7.210;2023-03-13T01:31:09;9.80;99.90
2967;DHT22;1493;51.496;7.210;2023-03-13T01:33:36;9.80;99.90
2967;DHT22;1493;51.496;7.210;2023-03-13T01:36:03;9.90;99.90
2967;DHT22;1493;51.496;7.210;2023-03-13T01:38:30;9.90;99.90
2967;DHT22;1493;51.496;7.210;2023-03-13T01:40:57;9.90;99.90
2967;DHT22;1493;51.496;7.210;2023-03-13T01:43:25;9.90;99.90
2967;DHT22;1493;51.496;7.210;2023-03-13T01:46:03;9.90;99.90
2967;DHT22;1493;51.496;7.210;2023-03-13T01:48:35;9.80;99.90
2967;DHT22;1493;51.496;7.210;2023-03-13T01:51:07;9.90;99.90
2967;DHT22;1493;51.496;7.210;2023-03-13T01:53:36;9.90;99.90
2967;DHT22;1493;51.496;7.210;2023-03-13T01:56:06;9.90;99.90
2967;DHT22;1493;51.496;7.210;2023-03-13T01:58:35;9.80;99.90
2967;DHT22;1493;51.496;7.210;2023-03-13T02:01:04;9.80;99.90
2967;DHT22;1493;51.496;7.210;2023-03-13T02:03:31;9.80;99.90
2967;DHT22;1493;51.496;7.210;2023-03-13T02:05:59;9.80;99.90
2967;DHT22;1493;51.496;7.210;2023-03-13T02:08:33;9.80;99.90
2967;DHT22;1493;51.496;7.210;2023-03-13T02:11:09;9.80;99.90
2967;DHT22;1493;51.496;7.210;2023-03-13T02:13:38;9.80;99.90
2967;DHT22;1493;51.496;7.210;2023-03-13T02:16:07;9.80;99.90
2967;DHT22;1493;51.496;7.210;2023-03-13T02:18:35;9.80;99.90
2967;DHT22;1493;51.496;7.210;2023-03-13T02:21:09;9.70;99.90
2967;DHT22;1493;51.496;7.210;2023-03-13T02:23:42;9.80;99.90
2967;DHT22;1493;51.496;7.210;2023-03-13T02:26:15;9.80;99.90
2967;DHT22;1493;51.496;7.210;2023-03-13T02:28:42;9.70;99.90
2967;DHT22;1493;51.496;7.210;2023-03-13T02:31:09;9.80;99.90
2967;DHT22;1493;51.496;7.210;2023-03-13T02:33:39;9.70;99.90
2967;DHT22;1493;51.496;7.210;2023-03-13T02:36:07;9.80;99.90
2967;DHT22;1493;51.496;7.210;2023-03-13T02:38:37;9.70;99.90
2967;DHT22;1493;51.496;7.210;2023-03-13T02:41:05;9.70;99.90
2967;DHT22;1493;51.496;7.210;2023-03-13T02:43:34;9.80;99.90
2967;DHT22;1493;51.496;7.210;2023-03-13T02:46:07;9.80;99.90
2967;DHT22;1493;51.496;7.210;2023-03-13T02:48:38;9.80;99.90
2967;DHT22;1493;51.496;7.210;2023-03-13T02:51:09;9.80;99.90
2967;DHT22;1493;51.496;7.210;2023-03-13T02:53:37;9.80;99.90
2967;DHT22;1493;51.496;7.210;2023-03-13T02:56:05;9.80;99.90
2967;DHT22;1493;51.496;7.210;2023-03-13T02:58:41;9.80;99.90
2967;DHT22;1493;51.496;7.210;2023-03-13T03:01:08;9.90;99.90
2967;DHT22;1493;51.496;7.210;2023-03-13T03:03:35;9.90;99.90
2967;DHT22;1493;51.496;7.210;2023-03-13T03:06:04;9.90;99.90
2967;DHT22;1493;51.496;7.210;2023-03-13T03:08:31;9.90;99.90
2967;DHT22;1493;51.496;7.210;2023-03-13T03:10:58;9.90;99.90
2967;DHT22;1493;51.496;7.210;2023-03-13T03:13:25;9.90;99.90
2967;DHT22;1493;51.496;7.210;2023-03-13T03:15:53;9.90;99.90
2967;DHT22;1493;51.496;7.210;2023-03-13T03:18:20;9.90;99.90
2967;DHT22;1493;51.496;7.210;2023-03-13T03:20:47;9.90;99.90
2967;DHT22;1493;51.496;7.210;2023-03-13T03:23:14;9.90;99.90
2967;DHT22;1493;51.496;7.210;2023-03-13T03:25:41;9.90;99.90
2967;DHT22;1493;51.496;7.210;2023-03-13T03:28:08;10.00;99.90
2967;DHT22;1493;51.496;7.210;2023-03-13T03:30:35;10.00;99.90
2967;DHT22;1493;51.496;7.210;2023-03-13T03:33:03;10.00;99.90
2967;DHT22;1493;51.496;7.210;2023-03-13T03:35:30;10.00;99.90
2967;DHT22;1493;51.496;7.210;2023-03-13T03:37:58;10.00;99.90
2967;DHT22;1493;51.496;7.210;2023-03-13T03:40:25;10.00;99.90
2967;DHT22;1493;51.496;7.210;2023-03-13T03:42:52;10.00;99.90
2967;DHT22;1493;51.496;7.210;2023-03-13T03:45:19;10.00;99.90
2967;DHT22;1493;51.496;7.210;2023-03-13T03:47:46;10.10;99.90
2967;DHT22;1493;51.496;7.210;2023-03-13T03:50:15;10.10;99.90
2967;DHT22;1493;51.496;7.210;2023-03-13T03:52:41;10.10;99.90
2967;DHT22;1493;51.496;7.210;2023-03-13T03:55:08;10.10;99.90
2967;DHT22;1493;51.496;7.210;2023-03-13T03:57:35;10.20;99.90
2967;DHT22;1493;51.496;7.210;2023-03-13T04:00:03;10.20;99.90
2967;DHT22;1493;51.496;7.210;2023-03-13T04:02:32;10.20;99.90
2967;DHT22;1493;51.496;7.210;2023-03-13T04:04:59;10.20;99.90
2967;DHT22;1493;51.496;7.210;2023-03-13T04:07:27;10.20;99.90
2967;DHT22;1493;51.496;7.210;2023-03-13T04:09:54;10.30;99.90
2967;DHT22;1493;51.496;7.210;2023-03-13T04:12:20;10.30;99.90
2967;DHT22;1493;51.496;7.210;2023-03-13T04:14:47;10.30;99.90
2967;DHT22;1493;51.496;7.210;2023-03-13T04:17:14;10.30;99.90
2967;DHT22;1493;51.496;7.210;2023-03-13T04:19:41;10.40;99.90
2967;DHT22;1493;51.496;7.210;2023-03-13T04:22:08;10.40;99.90
2967;DHT22;1493;51.496;7.210;2023-03-13T04:24:36;10.40;99.90
2967;DHT22;1493;51.496;7.210;2023-03-13T04:27:03;10.40;99.90
2967;DHT22;1493;51.496;7.210;2023-03-13T04:29:31;10.40;99.90
2967;DHT22;1493;51.496;7.210;2023-03-13T04:31:58;10.40;99.90
2967;DHT22;1493;51.496;7.210;2023-03-13T04:34:24;10.40;99.90
2967;DHT22;1493;51.496;7.210;2023-03-13T04:36:51;10.40;99.90
2967;DHT22;1493;51.496;7.210;2023-03-13T04:39:18;10.50;99.90
2967;DHT22;1493;51.496;7.210;2023-03-13T04:41:51;10.50;99.90
2967;DHT22;1493;51.496;7.210;2023-03-13T04:44:18;10.50;99.90
2967;DHT22;1493;51.496;7.210;2023-03-13T04:46:45;10.60;99.90
2967;DHT22;1493;51.496;7.210;2023-03-13T04:49:12;10.50;99.90
2967;DHT22;1493;51.496;7.210;2023-03-13T04:51:39;10.50;99.90
2967;DHT22;1493;51.496;7.210;2023-03-13T04:54:06;10.60;99.90
2967;DHT22;1493;51.496;7.210;2023-03-13T04:56:32;10.60;99.90
2967;DHT22;1493;51.496;7.210;2023-03-13T04:59:01;10.60;99.90
2967;DHT22;1493;51.496;7.210;2023-03-13T05:01:27;10.60;99.90
2967;DHT22;1493;51.496;7.210;2023-03-13T05:03:54;10.60;99.90
2967;DHT22;1493;51.496;7.210;2023-03-13T05:06:21;10.70;99.90
2967;DHT22;1493;51.496;7.210;2023-03-13T05:08:48;10.70;99.90
2967;DHT22;1493;51.496;7.210;2023-03-13T05:11:15;10.70;99.90
2967;DHT22;1493;51.496;7.210;2023-03-13T05:13:42;10.80;99.90
2967;DHT22;1493;51.496;7.210;2023-03-13T05:16:10;10.80;99.90
2967;DHT22;1493;51.496;7.210;2023-03-13T05:18:36;10.80;99.90
2967;DHT22;1493;51.496;7.210;2023-03-13T05:21:04;10.90;99.90
2967;DHT22;1493;51.496;7.210;2023-03-13T05:23:31;10.90;99.90
2967;DHT22;1493;51.496;7.210;2023-03-13T05:25:58;10.90;99.90
2967;DHT22;1493;51.496;7.210;2023-03-13T05:28:25;11.00;99.90
2967;DHT22;1493;51.496;7.210;2023-03-13T05:30:52;11.00;99.90
2967;DHT22;1493;51.496;7.210;2023-03-13T05:33:20;11.00;99.90
2967;DHT22;1493;51.496;7.210;2023-03-13T05:35:47;11.00;99.90
2967;DHT22;1493;51.496;7.210;2023-03-13T05:38:14;11.10;99.90
2967;DHT22;1493;51.496;7.210;2023-03-13T05:40:41;11.10;99.90
2967;DHT22;1493;51.496;7.210;2023-03-13T05:43:08;11.10;99.90
2967;DHT22;1493;51.496;7.210;2023-03-13T05:45:34;11.20;99.90
2967;DHT22;1493;51.496;7.210;2023-03-13T05:48:01;11.10;99.90
2967;DHT22;1493;51.496;7.210;2023-03-13T05:50:29;11.20;99.90
2967;DHT22;1493;51.496;7.210;2023-03-13T05:52:56;11.20;99.90
2967;DHT22;1493;51.496;7.210;2023-03-13T05:55:23;11.20;99.90
2967;DHT22;1493;51.496;7.210;2023-03-13T05:57:50;11.30;99.90
2967;DHT22;1493;51.496;7.210;2023-03-13T06:00:17;11.30;99.90
2967;DHT22;1493;51.496;7.210;2023-03-13T06:02:44;11.30;99.90
2967;DHT22;1493;51.496;7.210;2023-03-13T06:05:11;11.40;99.90
2967;DHT22;1493;51.496;7.210;2023-03-13T06:07:39;11.40;99.90
2967;DHT22;1493;51.496;7.210;2023-03-13T06:10:07;11.50;99.90
2967;DHT22;1493;51.496;7.210;2023-03-13T06:12:34;11.50;99.90
2967;DHT22;1493;51.496;7.210;2023-03-13T06:15:01;11.50;99.90
2967;DHT22;1493;51.496;7.210;2023-03-13T06:17:28;11.60;99.90
2967;DHT22;1493;51.496;7.210;2023-03-13T06:19:55;11.70;99.90
2967;DHT22;1493;51.496;7.210;2023-03-13T06:22:22;11.70;99.90
2967;DHT22;1493;51.496;7.210;2023-03-13T06:24:50;11.80;99.90
2967;DHT22;1493;51.496;7.210;2023-03-13T06:27:17;11.90;99.90
2967;DHT22;1493;51.496;7.210;2023-03-13T06:29:44;11.90;99.90
2967;DHT22;1493;51.496;7.210;2023-03-13T06:32:10;12.00;99.90
2967;DHT22;1493;51.496;7.210;2023-03-13T06:34:37;12.10;99.90
2967;DHT22;1493;51.496;7.210;2023-03-13T06:37:04;12.10;99.90
2967;DHT22;1493;51.496;7.210;2023-03-13T06:39:31;12.20;99.90
2967;DHT22;1493;51.496;7.210;2023-03-13T06:41:59;12.30;99.90
2967;DHT22;1493;51.496;7.210;2023-03-13T06:44:26;12.30;99.90
2967;DHT22;1493;51.496;7.210;2023-03-13T06:46:53;12.40;99.90
2967;DHT22;1493;51.496;7.210;2023-03-13T06:49:20;12.50;99.90
2967;DHT22;1493;51.496;7.210;2023-03-13T06:51:47;12.50;99.90
2967;DHT22;1493;51.496;7.210;2023-03-13T06:54:13;12.60;99.90
2967;DHT22;1493;51.496;7.210;2023-03-13T06:56:40;12.70;99.90
2967;DHT22;1493;51.496;7.210;2023-03-13T06:59:08;12.70;99.90
2967;DHT22;1493;51.496;7.210;2023-03-13T07:01:35;12.80;99.90
2967;DHT22;1493;51.496;7.210;2023-03-13T07:04:02;12.80;99.90
2967;DHT22;1493;51.496;7.210;2023-03-13T07:06:29;12.80;99.90
2967;DHT22;1493;51.496;7.210;2023-03-13T07:08:55;12.80;99.90
2967;DHT22;1493;51.496;7.210;2023-03-13T07:11:23;12.90;99.90
2967;DHT22;1493;51.496;7.210;2023-03-13T07:13:53;12.90;99.90
2967;DHT22;1493;51.496;7.210;2023-03-13T07:16:22;13.00;99.90
2967;DHT22;1493;51.496;7.210;2023-03-13T07:18:49;13.10;99.90
2967;DHT22;1493;51.496;7.210;2023-03-13T07:21:16;13.10;99.90
2967;DHT22;1493;51.496;7.210;2023-03-13T07:23:43;13.20;99.90
2967;DHT22;1493;51.496;7.210;2023-03-13T07:26:12;13.30;99.90
2967;DHT22;1493;51.496;7.210;2023-03-13T07:28:40;13.30;99.90
2967;DHT22;1493;51.496;7.210;2023-03-13T07:31:10;13.30;99.90
2967;DHT22;1493;51.496;7.210;2023-03-13T07:33:39;13.30;99.90
2967;DHT22;1493;51.496;7.210;2023-03-13T07:36:07;13.40;99.90
2967;DHT22;1493;51.496;7.210;2023-03-13T07:38:34;13.50;99.90
2967;DHT22;1493;51.496;7.210;2023-03-13T07:41:02;13.50;99.90
2967;DHT22;1493;51.496;7.210;2023-03-13T07:43:29;13.50;99.90
2967;DHT22;1493;51.496;7.210;2023-03-13T07:45:57;13.60;99.90
2967;DHT22;1493;51.496;7.210;2023-03-13T07:48:27;13.60;99.90
2967;DHT22;1493;51.496;7.210;2023-03-13T07:50:55;13.70;99.90
2967;DHT22;1493;51.496;7.210;2023-03-13T07:53:22;13.60;99.90
2967;DHT22;1493;51.496;7.210;2023-03-13T07:55:54;13.60;99.90
2967;DHT22;1493;51.496;7.210;2023-03-13T07:58:22;13.60;99.90
2967;DHT22;1493;51.496;7.210;2023-03-13T08:00:49;13.70;99.90
2967;DHT22;1493;51.496;7.210;2023-03-13T08:03:17;13.70;99.90
2967;DHT22;1493;51.496;7.210;2023-03-13T08:05:44;13.80;92.40
2967;DHT22;1493;51.496;7.210;2023-03-13T08:08:12;13.80;73.50
2967;DHT22;1493;51.496;7.210;2023-03-13T08:10:39;13.80;40.90
2967;DHT22;1493;51.496;7.210;2023-03-13T08:13:05;13.80;24.90
2967;DHT22;1493;51.496;7.210;2023-03-13T08:15:32;13.80;20.00
2967;DHT22;1493;51.496;7.210;2023-03-13T08:17:59;13.80;33.40
2967;DHT22;1493;51.496;7.210;2023-03-13T08:20:26;13.90;14.40
2967;DHT22;1493;51.496;7.210;2023-03-13T08:22:55;13.90;19.90
2967;DHT22;1493;51.496;7.210;2023-03-13T08:25:23;13.80;1.00
2967;DHT22;1493;51.496;7.210;2023-03-13T08:27:50;13.90;22.10
2967;DHT22;1493;51.496;7.210;2023-03-13T08:30:18;13.90;15.50
2967;DHT22;1493;51.496;7.210;2023-03-13T08:32:45;13.90;7.20
2967;DHT22;1493;51.496;7.210;2023-03-13T08:35:11;13.90;1.00
2967;DHT22;1493;51.496;7.210;2023-03-13T08:37:38;14.00;1.00
2967;DHT22;1493;51.496;7.210;2023-03-13T08:40:06;14.00;1.00
2967;DHT22;1493;51.496;7.210;2023-03-13T08:42:37;14.00;1.00
2967;DHT22;1493;51.496;7.210;2023-03-13T08:45:06;14.10;1.00
2967;DHT22;1493;51.496;7.210;2023-03-13T08:47:33;14.10;1.00
2967;DHT22;1493;51.496;7.210;2023-03-13T08:50:00;14.00;1.00
2967;DHT22;1493;51.496;7.210;2023-03-13T08:52:27;14.00;1.00
2967;DHT22;1493;51.496;7.210;2023-03-13T08:54:54;14.10;1.00
2967;DHT22;1493;51.496;7.210;2023-03-13T08:57:21;14.10;1.00
2967;DHT22;1493;51.496;7.210;2023-03-13T08:59:50;14.10;1.00
2967;DHT22;1493;51.496;7.210;2023-03-13T09:02:17;14.20;1.00
2967;DHT22;1493;51.496;7.210;2023-03-13T09:04:46;14.20;1.00
2967;DHT22;1493;51.496;7.210;2023-03-13T09:07:14;14.20;1.00
2967;DHT22;1493;51.496;7.210;2023-03-13T09:09:41;14.10;1.00
2967;DHT22;1493;51.496;7.210;2023-03-13T09:12:08;14.20;1.00
2967;DHT22;1493;51.496;7.210;2023-03-13T09:14:35;14.50;1.00
2967;DHT22;1493;51.496;7.210;2023-03-13T09:17:04;14.70;1.00
2967;DHT22;1493;51.496;7.210;2023-03-13T09:19:31;14.70;1.00
2967;DHT22;1493;51.496;7.210;2023-03-13T09:21:58;14.80;1.00
2967;DHT22;1493;51.496;7.210;2023-03-13T09:24:25;15.00;1.00
2967;DHT22;1493;51.496;7.210;2023-03-13T09:26:52;15.40;1.00
2967;DHT22;1493;51.496;7.210;2023-03-13T09:29:19;15.80;1.00
2967;DHT22;1493;51.496;7.210;2023-03-13T09:31:45;15.80;1.00
2967;DHT22;1493;51.496;7.210;2023-03-13T09:34:14;15.80;1.00
2967;DHT22;1493;51.496;7.210;2023-03-13T09:36:40;15.70;1.00
2967;DHT22;1493;51.496;7.210;2023-03-13T09:39:07;15.70;1.00
2967;DHT22;1493;51.496;7.210;2023-03-13T09:41:38;15.60;1.00
2967;DHT22;1493;51.496;7.210;2023-03-13T09:44:11;15.90;1.00
2967;DHT22;1493;51.496;7.210;2023-03-13T09:46:44;15.90;1.00
2967;DHT22;1493;51.496;7.210;2023-03-13T09:49:26;15.70;1.00
2967;DHT22;1493;51.496;7.210;2023-03-13T09:52:01;15.30;1.00
2967;DHT22;1493;51.496;7.210;2023-03-13T09:54:34;15.70;1.00
2967;DHT22;1493;51.496;7.210;2023-03-13T09:57:09;16.00;1.00
2967;DHT22;1493;51.496;7.210;2023-03-13T09:59:43;15.70;1.00
2967;DHT22;1493;51.496;7.210;2023-03-13T10:02:20;15.20;16.80
2967;DHT22;1493;51.496;7.210;2023-03-13T10:04:54;14.60;99.90
2967;DHT22;1493;51.496;7.210;2023-03-13T10:07:22;14.50;99.90
2967;DHT22;1493;51.496;7.210;2023-03-13T10:09:49;14.60;99.90
2967;DHT22;1493;51.496;7.210;2023-03-13T10:12:19;14.50;99.90
2967;DHT22;1493;51.496;7.210;2023-03-13T10:15:04;14.40;99.90
2967;DHT22;1493;51.496;7.210;2023-03-13T10:17:38;14.60;99.90
2967;DHT22;1493;51.496;7.210;2023-03-13T10:20:16;14.50;99.90
2967;DHT22;1493;51.496;7.210;2023-03-13T10:22:48;14.50;99.90
2967;DHT22;1493;51.496;7.210;2023-03-13T10:25:24;14.60;99.90
2967;DHT22;1493;51.496;7.210;2023-03-13T10:27:53;15.50;48.30
2967;DHT22;1493;51.496;7.210;2023-03-13T10:30:23;17.20;1.00
2967;DHT22;1493;51.496;7.210;2023-03-13T10:32:59;18.20;16.70
2967;DHT22;1493;51.496;7.210;2023-03-13T10:35:33;18.80;99.90
2967;DHT22;1493;51.496;7.210;2023-03-13T10:38:04;19.80;1.00
2967;DHT22;1493;51.496;7.210;2023-03-13T10:40:31;19.10;1.00
2967;DHT22;1493;51.496;7.210;2023-03-13T10:43:04;18.20;1.00
2967;DHT22;1493;51.496;7.210;2023-03-13T10:45:33;18.30;99.90
2967;DHT22;1493;51.496;7.210;2023-03-13T10:48:03;18.10;99.90
2967;DHT22;1493;51.496;7.210;2023-03-13T10:50:34;17.60;1.00
2967;DHT22;1493;51.496;7.210;2023-03-13T10:53:21;17.60;1.00
2967;DHT22;1493;51.496;7.210;2023-03-13T10:55:48;17.70;99.90
2967;DHT22;1493;51.496;7.210;2023-03-13T10:58:19;18.30;1.00
2967;DHT22;1493;51.496;7.210;2023-03-13T11:00:48;19.10;99.90
2967;DHT22;1493;51.496;7.210;2023-03-13T11:03:17;18.80;1.00
2967;DHT22;1493;51.496;7.210;2023-03-13T11:05:56;18.00;1.00
2967;DHT22;1493;51.496;7.210;2023-03-13T11:08:24;17.50;99.90
2967;DHT22;1493;51.496;7.210;2023-03-13T11:10:59;18.00;1.00
2967;DHT22;1493;51.496;7.210;2023-03-13T11:13:33;18.00;1.00
2967;DHT22;1493;51.496;7.210;2023-03-13T11:16:07;17.90;99.90
2967;DHT22;1493;51.496;7.210;2023-03-13T11:18:41;18.50;1.00
2967;DHT22;1493;51.496;7.210;2023-03-13T11:21:18;19.30;46.70
2967;DHT22;1493;51.496;7.210;2023-03-13T11:23:51;19.00;99.90
2967;DHT22;1493;51.496;7.210;2023-03-13T11:26:25;18.40;99.90
2967;DHT22;1493;51.496;7.210;2023-03-13T11:29:00;18.20;99.90
2967;DHT22;1493;51.496;7.210;2023-03-13T11:31:30;17.80;99.90
2967;DHT22;1493;51.496;7.210;2023-03-13T11:34:03;17.90;1.00
2967;DHT22;1493;51.496;7.210;2023-03-13T11:36:35;17.90;99.90
2967;DHT22;1493;51.496;7.210;2023-03-13T11:42:22;17.70;1.00
2967;DHT22;1493;51.496;7.210;2023-03-13T11:44:57;17.80;1.00
2967;DHT22;1493;51.496;7.210;2023-03-13T11:47:35;18.10;99.90
2967;DHT22;1493;51.496;7.210;2023-03-13T11:50:22;18.80;99.90
2967;DHT22;1493;51.496;7.210;2023-03-13T11:53:07;19.60;99.90
2967;DHT22;1493;51.496;7.210;2023-03-13T11:55:48;20.80;1.00
2967;DHT22;1493;51.496;7.210;2023-03-13T11:58:30;21.40;1.00
2967;DHT22;1493;51.496;7.210;2023-03-13T12:01:02;22.10;1.00
2967;DHT22;1493;51.496;7.210;2023-03-13T12:03:36;21.00;1.00
2967;DHT22;1493;51.496;7.210;2023-03-13T12:06:09;20.40;1.00
2967;DHT22;1493;51.496;7.210;2023-03-13T12:08:45;20.50;1.00
2967;DHT22;1493;51.496;7.210;2023-03-13T12:11:17;21.10;1.00
2967;DHT22;1493;51.496;7.210;2023-03-13T12:13:50;21.10;1.00
2967;DHT22;1493;51.496;7.210;2023-03-13T12:16:22;20.50;1.00
2967;DHT22;1493;51.496;7.210;2023-03-13T12:18:54;19.30;1.00
2967;DHT22;1493;51.496;7.210;2023-03-13T12:21:27;18.80;99.90
2967;DHT22;1493;51.496;7.210;2023-03-13T12:24:01;18.60;99.90
2967;DHT22;1493;51.496;7.210;2023-03-13T12:26:33;18.40;99.90
2967;DHT22;1493;51.496;7.210;2023-03-13T12:29:10;17.80;99.90
2967;DHT22;1493;51.496;7.210;2023-03-13T12:31:41;17.70;1.00
2967;DHT22;1493;51.496;7.210;2023-03-13T12:34:13;17.60;99.90
2967;DHT22;1493;51.496;7.210;2023-03-13T12:36:45;17.70;1.00
2967;DHT22;1493;51.496;7.210;2023-03-13T12:39:21;17.60;1.00
2967;DHT22;1493;51.496;7.210;2023-03-13T12:42:01;17.70;1.00
2967;DHT22;1493;51.496;7.210;2023-03-13T12:44:33;18.20;1.00
2967;DHT22;1493;51.496;7.210;2023-03-13T12:47:07;18.20;99.90
2967;DHT22;1493;51.496;7.210;2023-03-13T12:49:59;17.80;99.90
2967;DHT22;1493;51.496;7.210;2023-03-13T12:58:29;17.30;99.90
2967;DHT22;1493;51.496;7.210;2023-03-13T13:01:05;17.30;99.90
2967;DHT22;1493;51.496;7.210;2023-03-13T13:03:35;17.30;1.00
2967;DHT22;1493;51.496;7.210;2023-03-13T13:06:06;17.50;99.90
2967;DHT22;1493;51.496;7.210;2023-03-13T13:08:37;17.70;99.90
2967;DHT22;1493;51.496;7.210;2023-03-13T13:11:43;17.60;99.90
2967;DHT22;1493;51.496;7.210;2023-03-13T13:17:42;17.60;99.90
2967;DHT22;1493;51.496;7.210;2023-03-13T13:20:39;17.50;99.90
2967;DHT22;1493;51.496;7.210;2023-03-13T13:23:31;18.10;99.90
2967;DHT22;1493;51.496;7.210;2023-03-13T13:32:44;19.20;1.00
2967;DHT22;1493;51.496;7.210;2023-03-13T13:35:29;19.20;1.00
2967;DHT22;1493;51.496;7.210;2023-03-13T13:38:28;19.50;1.00
2967;DHT22;1493;51.496;7.210;2023-03-13T13:41:03;20.00;1.00
2967;DHT22;1493;51.496;7.210;2023-03-13T13:43:34;19.20;1.00
2967;DHT22;1493;51.496;7.210;2023-03-13T13:46:03;18.80;1.00
2967;DHT22;1493;51.496;7.210;2023-03-13T13:48:35;18.70;1.00
2967;DHT22;1493;51.496;7.210;2023-03-13T13:51:23;19.10;1.00
2967;DHT22;1493;51.496;7.210;2023-03-13T13:53:55;19.70;1.00
2967;DHT22;1493;51.496;7.210;2023-03-13T13:56:41;19.50;1.00
2967;DHT22;1493;51.496;7.210;2023-03-13T13:59:41;18.90;1.00
2967;DHT22;1493;51.496;7.210;2023-03-13T14:02:22;18.30;1.00
2967;DHT22;1493;51.496;7.210;2023-03-13T14:05:00;18.00;1.00
2967;DHT22;1493;51.496;7.210;2023-03-13T14:07:29;17.80;1.00
2967;DHT22;1493;51.496;7.210;2023-03-13T14:10:03;17.70;1.00
2967;DHT22;1493;51.496;7.210;2023-03-13T14:12:33;17.40;41.50
2967;DHT22;1493;51.496;7.210;2023-03-13T14:15:14;17.60;99.90
2967;DHT22;1493;51.496;7.210;2023-03-13T14:17:44;17.70;49.70
2967;DHT22;1493;51.496;7.210;2023-03-13T14:20:25;17.70;58.00
2967;DHT22;1493;51.496;7.210;2023-03-13T14:22:54;17.40;94.80
2967;DHT22;1493;51.496;7.210;2023-03-13T14:25:23;17.50;99.10
2967;DHT22;1493;51.496;7.210;2023-03-13T14:27:51;17.50;86.40
2967;DHT22;1493;51.496;7.210;2023-03-13T14:30:19;17.40;91.00
2967;DHT22;1493;51.496;7.210;2023-03-13T14:32:46;17.30;99.90
2967;DHT22;1493;51.496;7.210;2023-03-13T14:35:15;17.40;94.10
2967;DHT22;1493;51.496;7.210;2023-03-13T14:37:46;17.30;99.90
2967;DHT22;1493;51.496;7.210;2023-03-13T14:40:24;17.30;99.90
2967;DHT22;1493;51.496;7.210;2023-03-13T14:42:53;17.20;99.90
2967;DHT22;1493;51.496;7.210;2023-03-13T14:45:24;17.10;99.90
2967;DHT22;1493;51.496;7.210;2023-03-13T14:47:51;17.10;99.90
2967;DHT22;1493;51.496;7.210;2023-03-13T14:50:21;16.80;99.90
2967;DHT22;1493;51.496;7.210;2023-03-13T14:52:52;16.80;99.90
2967;DHT22;1493;51.496;7.210;2023-03-13T14:55:34;16.90;99.90
2967;DHT22;1493;51.496;7.210;2023-03-13T14:58:24;17.10;99.90
2967;DHT22;1493;51.496;7.210;2023-03-13T15:00:53;17.10;99.90
2967;DHT22;1493;51.496;7.210;2023-03-13T15:03:32;17.00;99.90
2967;DHT22;1493;51.496;7.210;2023-03-13T15:06:06;17.00;99.90
2967;DHT22;1493;51.496;7.210;2023-03-13T15:08:35;16.90;99.90
2967;DHT22;1493;51.496;7.210;2023-03-13T15:11:19;16.80;99.90
2967;DHT22;1493;51.496;7.210;2023-03-13T15:13:47;16.40;99.90
2967;DHT22;1493;51.496;7.210;2023-03-13T15:16:15;15.90;1.00
2967;DHT22;1493;51.496;7.210;2023-03-13T15:18:45;15.50;99.90
2967;DHT22;1493;51.496;7.210;2023-03-13T15:21:27;15.20;99.90
2967;DHT22;1493;51.496;7.210;2023-03-13T15:23:59;15.10;99.90
2967;DHT22;1493;51.496;7.210;2023-03-13T15:26:27;15.00;99.90
2967;DHT22;1493;51.496;7.210;2023-03-13T15:28:54;14.90;99.90
2967;DHT22;1493;51.496;7.210;2023-03-13T15:31:25;14.90;99.90
2967;DHT22;1493;51.496;7.210;2023-03-13T15:33:55;15.10;1.00
2967;DHT22;1493;51.496;7.210;2023-03-13T15:36:24;15.30;99.90
2967;DHT22;1493;51.496;7.210;2023-03-13T15:38:51;15.40;99.90
2967;DHT22;1493;51.496;7.210;2023-03-13T15:41:20;15.60;1.00
2967;DHT22;1493;51.496;7.210;2023-03-13T15:43:48;15.90;1.00
2967;DHT22;1493;51.496;7.210;2023-03-13T15:46:17;16.20;95.60
2967;DHT22;1493;51.496;7.210;2023-03-13T15:48:44;16.30;1.00
2967;DHT22;1493;51.496;7.210;2023-03-13T15:51:13;16.20;1.00
2967;DHT22;1493;51.496;7.210;2023-03-13T15:53:42;16.20;99.90
2967;DHT22;1493;51.496;7.210;2023-03-13T15:56:13;16.20;99.90
2967;DHT22;1493;51.496;7.210;2023-03-13T15:58:43;16.20;99.90
2967;DHT22;1493;51.496;7.210;2023-03-13T16:01:11;16.30;99.90
2967;DHT22;1493;51.496;7.210;2023-03-13T16:03:38;16.30;1.00
2967;DHT22;1493;51.496;7.210;2023-03-13T16:06:13;16.30;1.00
2967;DHT22;1493;51.496;7.210;2023-03-13T16:08:41;16.30;1.00
2967;DHT22;1493;51.496;7.210;2023-03-13T16:11:11;16.20;1.00
2967;DHT22;1493;51.496;7.210;2023-03-13T16:13:38;16.00;1.00
2967;DHT22;1493;51.496;7.210;2023-03-13T16:16:17;16.00;1.00
2967;DHT22;1493;51.496;7.210;2023-03-13T16:18:45;15.90;1.00
2967;DHT22;1493;51.496;7.210;2023-03-13T16:21:16;15.80;99.90
2967;DHT22;1493;51.496;7.210;2023-03-13T16:23:43;15.70;99.90
2967;DHT22;1493;51.496;7.210;2023-03-13T16:26:14;15.70;99.90
2967;DHT22;1493;51.496;7.210;2023-03-13T16:28:42;15.60;99.90
2967;DHT22;1493;51.496;7.210;2023-03-13T16:31:15;15.50;1.00
2967;DHT22;1493;51.496;7.210;2023-03-13T16:33:42;15.60;1.00
2967;DHT22;1493;51.496;7.210;2023-03-13T16:36:13;15.50;1.00
2967;DHT22;1493;51.496;7.210;2023-03-13T16:38:40;15.50;1.00
2967;DHT22;1493;51.496;7.210;2023-03-13T16:41:12;15.40;1.00
2967;DHT22;1493;51.496;7.210;2023-03-13T16:43:40;15.30;1.00
2967;DHT22;1493;51.496;7.210;2023-03-13T16:46:15;15.30;1.00
2967;DHT22;1493;51.496;7.210;2023-03-13T16:48:42;15.20;99.90